Terminal Aerodrome Forecast
Issued by NWS

Home | Current Version | Previous Version | Text Only | Print | Product List | Glossary Off
Versions: 1 2 3 4 5 6 7 8 9 10 11 12 13 14

000
FTUS43 KICT 221735
TAFSLN
TAF
KSLN 221735Z 2218/2318 24008KT P6SM -SHRA VCTS SCT035CB BKN060
      TEMPO 2218/2221 5SM -SHRA BKN030
     FM222200 22009KT P6SM SCT100
     FM230100 22008KT P6SM VCTS FEW150CB
     FM230600 30007KT P6SM VCSH OVC040
     FM230900 36011KT P6SM OVC030
     FM231500 34014G22KT P6SM SCT050=

USA.gov is the U.S. government's official web portal to all federal, state and local government web resources and services.